Terminal Aerodrome Forecast
Issued by NWS

Home | Current Version | Previous Version | Text Only | Print | Product List | Glossary On
Versions: 1 2 3 4 5 6 7 8 9 10 11 12 13 14 15
278
FTUS43 KPAH 250619 AAA
TAFCGI
TAF AMD
KCGI 250619Z 2506/2606 00000KT P6SM SKC
     FM250900 00000KT 2SM BR BCFG SKC
     FM251300 00000KT P6SM SKC
     FM251600 17005KT P6SM SCT050=

USA.gov is the U.S. government's official web portal to all federal, state and local government web resources and services.